KK4JIV-13 Weather Reports


time (UTC)temp
F
wind
direction
speed
knots
gust
knots
rain 1hr
in
rain 24hr
in
rain mn
in
humidity
%
barometer
mb
20260510150135 86 280 0.9 1.7 0.00 0.01 0.01 74 1015.9
20260510145632 87 54 0.0 0.0 0.00 0.01 0.01 72 1016.0
20260510145129 86 53 0.0 0.9 0.00 0.01 0.01 75 1016.0
20260510144624 84 345 0.0 0.9 0.00 0.01 0.01 78 1015.9
20260510144121 85 83 0.0 0.9 0.00 0.01 0.01 78 1016.0
20260510143616 87 124 1.7 1.7 0.00 0.01 0.01 74 1016.1
20260510143113 86 127 0.9 1.7 0.00 0.01 0.01 75 1016.1
20260510142610 84 84 0.0 0.0 0.00 0.01 0.01 77 1016.1
20260510142106 84 89 0.9 1.7 0.00 0.01 0.01 79 1015.9
20260510141603 84 56 0.0 0.0 0.00 0.01 0.01 78 1015.9
20260510141102 83 102 1.7 1.7 0.00 0.01 0.01 80 1015.7
20260510140557 83 212 0.9 0.9 0.00 0.01 0.01 81 1016.0
20260510140056 83 27 0.0 0.9 0.00 0.01 0.01 80 1015.7
20260510135553 83 276 0.9 0.9 0.00 0.01 0.01 81 1015.6
20260510135049 84 210 0.9 1.7 0.00 0.01 0.01 79 1015.7
20260510134546 84 132 1.7 1.7 0.00 0.01 0.01 77 1015.8
20260510134043 84 82 0.0 0.0 0.00 0.01 0.01 79 1015.9
20260510133539 84 74 0.0 0.9 0.00 0.01 0.01 80 1015.5
20260510133035 83 79 0.0 0.9 0.00 0.01 0.01 79 1015.6
20260510132532 82 126 0.0 0.9 0.00 0.01 0.01 80 1015.5
20260510132029 81 170 0.9 0.9 0.00 0.01 0.01 83 1015.4
20260510131526 81 158 0.9 0.9 0.00 0.01 0.01 83 1015.4
20260510131023 81 183 0.0 0.9 0.00 0.01 0.01 83 1015.2
20260510130519 80 271 0.9 1.7 0.00 0.01 0.01 84 1015.5
20260510130017 79 67 0.0 0.0 0.00 0.01 0.01 85 1015.4
20260510125513 78 72 0.0 0.0 0.00 0.01 0.01 87 1015.5
20260510125010 76 88 0.0 0.9 0.00 0.01 0.01 90 1015.2
20260510124506 75 81 0.9 1.7 0.00 0.01 0.01 92 1015.1
20260510124004 74 228 0.9 0.9 0.00 0.01 0.01 95 1015.2
20260510123458 73 94 0.0 0.0 0.00 0.01 0.01 98 1015.1
20260510122955 72 85 0.0 0.0 0.00 0.01 0.01 99 1015.2
20260510122450 72 93 0.0 0.0 0.00 0.01 0.01 99 1015.1
20260510121947 71 91 0.0 0.0 0.00 0.01 0.01 99 1015.1
20260510121444 71 90 0.0 0.0 0.00 0.01 0.01 99 1015.0
20260510120942 71 90 0.0 0.0 0.00 0.01 0.01 99 1014.9
20260510120439 70 90 0.0 0.0 0.00 0.01 0.01 99 1014.8
20260510115934 70 91 0.0 0.0 0.00 0.01 0.01 99 1014.7
20260510115432 70 92 0.0 0.0 0.00 0.01 0.01 99 1014.5
20260510114927 70 93 0.0 0.0 0.00 0.01 0.01 99 1014.6
20260510114425 70 93 0.0 0.0 0.00 0.01 0.01 99 1014.4
20260510113920 69 93 0.0 0.0 0.00 0.01 0.01 99 1014.4
20260510113416 69 93 0.0 0.0 0.00 0.01 0.01 99 1014.5
20260510112913 68 93 0.0 0.0 0.00 0.01 0.01 99 1014.4
20260510112410 68 93 0.0 0.0 0.00 0.01 0.01 99 1014.4
20260510111906 68 93 0.0 0.0 0.00 0.01 0.01 99 1014.1
20260510111403 68 93 0.0 0.0 0.00 0.01 0.01 99 1013.7
20260510110858 68 94 0.0 0.0 0.00 0.01 0.01 99 1013.9
20260510110355 68 94 0.0 0.0 0.00 0.01 0.01 99 1013.7
20260510105851 67 93 0.0 0.0 0.00 0.01 0.01 99 1013.7
20260510105350 67 93 0.0 0.0 0.00 0.01 0.01 99 1013.6
20260510104847 67 93 0.0 0.0 0.00 0.01 0.01 99 1013.6
20260510104344 67 93 0.0 0.0 0.00 0.01 0.01 99 1013.5
20260510103840 67 93 0.0 0.0 0.00 0.01 0.01 99 1013.5
20260510103337 67 93 0.0 0.0 0.00 0.01 0.01 99 1013.7
20260510102833 67 93 0.0 0.0 0.00 0.01 0.01 99 1013.6
20260510102329 67 85 0.0 0.0 0.00 0.01 0.01 99 1013.4
20260510101826 67 130 0.0 0.0 0.00 0.01 0.01 99 1013.3
20260510101324 68 130 0.0 0.0 0.00 0.01 0.01 99 1013.4
20260510100820 67 130 0.0 0.0 0.00 0.01 0.01 99 1013.2
20260510100318 67 130 0.0 0.0 0.00 0.01 0.01 99 1013.1
20260510095813 68 130 0.0 0.0 0.00 0.01 0.01 99 1013.1
20260510095309 68 130 0.0 0.0 0.00 0.01 0.01 99 1013.0
20260510094803 68 130 0.0 0.0 0.00 0.01 0.01 99 1013.0
20260510094258 68 130 0.0 0.0 0.00 0.01 0.01 99 1013.1
20260510093754 68 101 0.0 0.0 0.00 0.01 0.01 99 1012.9
20260510093251 68 101 0.0 0.0 0.00 0.01 0.01 99 1012.9
20260510092747 68 102 0.0 0.0 0.00 0.01 0.01 98 1012.9
20260510092243 68 102 0.0 0.0 0.00 0.01 0.01 98 1013.0
20260510091739 68 130 0.0 0.0 0.00 0.01 0.01 98 1013.0
20260510091237 68 130 0.0 0.0 0.00 0.01 0.01 98 1012.8
20260510090733 68 130 0.0 0.0 0.00 0.01 0.01 98 1012.7
20260510090230 69 130 0.0 0.0 0.00 0.01 0.01 98 1012.5
20260510085725 69 130 0.0 0.0 0.00 0.01 0.01 98 1012.6
20260510085220 69 130 0.0 0.0 0.00 0.01 0.01 97 1012.5
20260510084716 70 131 0.0 0.0 0.00 0.01 0.01 97 1012.6
20260510084214 69 131 0.0 0.0 0.00 0.01 0.01 97 1012.3
20260510083710 70 142 0.0 0.0 0.00 0.01 0.01 97 1012.4
20260510083207 70 102 0.0 0.0 0.00 0.01 0.01 97 1012.3
20260510082702 70 142 0.0 0.0 0.00 0.01 0.01 97 1012.2
20260510082159 70 124 0.0 0.0 0.00 0.01 0.01 96 1012.4
20260510081658 70 124 0.0 0.0 0.00 0.01 0.01 96 1012.1
20260510081154 70 142 0.0 0.0 0.00 0.01 0.01 96 1012.2
20260510080649 70 110 0.0 0.0 0.00 0.01 0.01 96 1012.1
20260510080146 70 139 0.0 0.0 0.00 0.01 0.01 96 1012.2
20260510075643 70 109 0.0 0.0 0.00 0.01 0.01 96 1012.3
20260510075140 70 169 0.0 0.0 0.00 0.01 0.01 96 1012.3
20260510074638 70 105 0.0 0.9 0.00 0.01 0.01 96 1012.2
20260510074133 70 131 0.9 1.7 0.00 0.01 0.01 96 1012.2
20260510073630 70 112 0.0 0.9 0.00 0.01 0.01 95 1012.3
20260510073126 70 149 0.0 0.0 0.00 0.01 0.01 95 1012.1
20260510072622 70 140 0.9 0.9 0.00 0.01 0.01 95 1012.3
20260510072119 70 105 0.0 0.0 0.00 0.01 0.01 95 1012.3
20260510071615 70 117 0.0 0.0 0.00 0.01 0.01 96 1012.2
20260510071112 70 81 0.0 0.0 0.00 0.01 0.01 95 1012.3
20260510070609 70 120 1.7 2.6 0.00 0.01 0.01 96 1012.2
20260510070107 70 142 0.0 0.0 0.00 0.01 0.01 96 1012.4
20260510065603 69 132 0.0 0.0 0.00 0.01 0.01 96 1012.4
20260510065058 69 191 0.0 0.0 0.00 0.01 0.01 96 1012.4
20260510064555 69 129 0.0 0.0 0.00 0.01 0.01 97 1012.2
20260510064052 69 100 0.0 0.0 0.00 0.01 0.01 97 1012.3
20260510063549 69 162 0.0 0.0 0.00 0.01 0.01 97 1012.5
20260510063046 69 104 0.0 0.0 0.00 0.01 0.01 97 1012.5
20260510062542 69 94 0.0 0.0 0.00 0.01 0.01 96 1012.5
20260510062037 69 98 0.0 0.0 0.00 0.01 0.01 96 1012.5
20260510061534 69 93 0.0 0.0 0.00 0.01 0.01 96 1012.8
20260510061030 69 105 0.0 0.0 0.00 0.01 0.01 96 1012.7
20260510060527 69 102 0.0 0.0 0.00 0.01 0.01 96 1012.7
20260510060023 69 96 0.0 0.0 0.00 0.01 0.01 96 1012.8
20260510055519 69 107 0.0 0.0 0.00 0.01 0.01 96 1012.8
20260510055018 70 110 0.0 0.0 0.00 0.01 0.01 95 1013.0
20260510054513 70 96 0.0 0.0 0.00 0.01 0.01 95 1013.0
20260510054009 70 173 0.0 0.0 0.00 0.01 0.01 96 1013.0
20260510053503 69 188 1.7 2.6 0.00 0.01 0.01 97 1012.9
20260510053001 69 152 0.0 0.0 0.00 0.01 0.01 97 1013.0
20260510052456 69 160 0.0 0.0 0.00 0.01 0.01 97 1013.0
20260510051953 69 129 0.0 0.0 0.00 0.01 0.01 98 1013.1
20260510051448 69 139 0.0 0.0 0.00 0.01 0.01 98 1013.2
20260510050944 69 142 0.0 0.9 0.00 0.01 0.01 99 1013.2
20260510050442 69 118 0.9 0.9 0.00 0.01 0.01 99 1013.1
20260510045939 69 93 0.0 0.0 0.05 0.01 0.01 99 1013.2
20260510045436 68 138 0.9 2.6 0.05 0.01 0.01 99 1013.5
20260510044933 68 90 0.0 0.0 0.00 0.00 0.00 99 1013.6
20260510044430 68 131 1.7 1.7 0.00 0.00 0.00 99 1013.6
20260510043927 68 139 0.0 0.0 0.00 0.00 0.00 99 1013.6
20260510043422 68 139 0.0 0.0 0.00 0.00 0.00 99 1014.0
20260510042921 68 139 0.0 0.0 0.00 0.00 0.00 99 1014.0
20260510042416 68 139 0.0 0.0 0.00 0.00 0.00 99 1014.0
20260510041912 68 139 0.0 0.0 0.00 0.00 0.00 99 1013.9
20260510041409 68 139 0.0 0.0 0.00 0.00 0.00 99 1014.1
20260510040907 68 139 0.0 0.0 0.00 0.00 0.00 99 1014.1
20260510040404 68 108 0.0 0.9 0.00 0.00 0.00 99 1013.9
20260510035859 68 85 0.0 0.0 0.00 0.03 0.03 99 1014.0
20260510035355 68 74 0.0 0.0 0.00 0.03 0.03 99 1014.3
20260510034850 69 74 0.0 0.0 0.00 0.03 0.03 99 1014.6
20260510034349 69 74 0.0 0.0 0.00 0.03 0.03 99 1014.5
20260510033845 68 74 0.0 0.0 0.00 0.03 0.03 99 1014.4
20260510033342 68 74 0.0 0.0 0.00 0.03 0.03 99 1014.6
20260510032838 68 74 0.0 0.0 0.00 0.03 0.03 99 1014.5
20260510032335 68 74 0.0 0.0 0.00 0.03 0.03 99 1014.6
20260510031831 68 74 0.0 0.0 0.00 0.03 0.03 99 1014.6
20260510031326 68 74 0.0 0.0 0.00 0.03 0.03 99 1014.5
20260510030820 68 74 0.0 0.0 0.00 0.03 0.03 99 1014.4
20260510030317 68 74 0.0 0.0 0.00 0.03 0.03 99 1014.4
20260510025815 68 74 0.0 0.0 0.00 0.03 0.03 99 1014.2
20260510025312 68 74 0.0 0.0 0.00 0.03 0.03 99 1014.2
20260510024809 69 74 0.0 0.0 0.00 0.03 0.03 99 1014.1
20260510024306 69 74 0.0 0.0 0.00 0.03 0.03 99 1014.2
20260510023802 69 74 0.0 0.0 0.00 0.03 0.03 99 1014.2
20260510023258 69 74 0.0 0.0 0.00 0.03 0.03 99 1014.0
20260510022756 69 74 0.0 0.0 0.00 0.03 0.03 99 1014.0
20260510022255 69 74 0.0 0.0 0.00 0.03 0.03 99 1014.3
20260510021754 69 74 0.0 0.0 0.00 0.03 0.03 99 1013.9
20260510021253 69 74 0.0 0.0 0.00 0.03 0.03 99 1014.1
20260510020748 69 74 0.0 0.0 0.00 0.03 0.03 99 1014.1
20260510020242 69 74 0.0 0.0 0.00 0.03 0.03 98 1013.9
20260510015739 69 74 0.0 0.0 0.00 0.03 0.03 98 1013.8
20260510015235 69 74 0.0 0.0 0.00 0.03 0.03 98 1013.7
20260510014731 69 74 0.0 0.0 0.00 0.03 0.03 98 1013.4
20260510014228 69 74 0.0 0.0 0.00 0.03 0.03 98 1013.4
20260510013723 69 74 0.0 0.0 0.00 0.03 0.03 98 1013.6
20260510013219 70 75 0.0 0.0 0.00 0.03 0.03 98 1013.4
20260510012719 69 75 0.0 0.0 0.00 0.03 0.03 98 1013.4
20260510012214 69 75 0.0 0.0 0.00 0.03 0.03 98 1013.2
20260510011709 70 75 0.0 0.0 0.00 0.03 0.03 98 1013.2
20260510011205 70 52 0.0 0.0 0.00 0.03 0.03 98 1013.4
20260510010701 70 60 0.0 0.0 0.00 0.03 0.03 98 1013.2
20260510010158 70 60 0.0 0.0 0.00 0.03 0.03 98 1013.0
20260510005654 70 60 0.0 0.0 0.00 0.03 0.03 98 1013.0
20260510005151 70 46 0.0 0.0 0.00 0.03 0.03 98 1012.8
20260510004650 70 46 0.0 0.0 0.00 0.03 0.03 97 1013.0
20260510004147 70 46 0.0 0.0 0.00 0.03 0.03 97 1012.9
20260510003645 70 45 0.0 0.0 0.00 0.03 0.03 97 1012.8
20260510003140 70 45 0.0 0.0 0.00 0.03 0.03 97 1012.7
20260510002635 70 44 0.0 0.0 0.00 0.03 0.03 97 1012.6
20260510002132 70 44 0.0 0.0 0.00 0.03 0.03 97 1012.7
20260510001629 70 44 0.0 0.0 0.00 0.03 0.03 97 1012.8
20260510001128 70 75 0.9 0.9 0.00 0.03 0.03 97 1012.6
20260510000628 70 28 0.0 0.0 0.00 0.03 0.03 97 1012.8
20260510000126 70 51 0.0 0.0 0.00 0.03 0.03 97 1012.8
20260509235621 70 55 0.0 0.0 0.00 0.03 0.03 96 1012.6
20260509235119 70 94 0.0 0.0 0.00 0.03 0.03 96 1013.0
20260509234614 70 358 0.0 0.0 0.00 0.03 0.03 96 1013.1
20260509234113 70 358 0.0 0.0 0.00 0.03 0.03 96 1013.0
20260509233610 70 11 0.0 0.0 0.00 0.03 0.03 96 1012.9
20260509233107 70 63 0.0 0.0 0.00 0.03 0.03 96 1012.8
20260509232603 70 357 0.0 0.0 0.00 0.03 0.03 96 1012.9
20260509232100 70 39 0.0 0.0 0.00 0.03 0.03 96 1012.7
20260509231557 70 41 0.0 0.0 0.00 0.03 0.03 96 1012.6
20260509231054 70 35 0.0 0.0 0.00 0.03 0.03 96 1012.7
20260509230551 70 324 0.0 0.0 0.00 0.03 0.03 96 1012.8
20260509230048 70 353 0.0 0.0 0.00 0.03 0.03 96 1013.0
20260509225548 70 52 0.0 0.0 0.00 0.03 0.03 96 1012.9
20260509225044 70 302 0.9 2.6 0.00 0.03 0.03 96 1013.0
20260509224540 70 12 0.0 0.0 0.00 0.03 0.03 95 1013.2
20260509224037 71 17 0.0 0.9 0.00 0.03 0.03 95 1013.0
20260509223534 71 33 0.0 0.9 0.07 0.03 0.03 95 1013.2
20260509223032 71 9 0.0 0.0 0.07 0.03 0.03 95 1013.4
20260509222527 72 31 0.0 0.0 0.00 0.02 0.02 94 1013.5
20260509222023 72 311 0.0 0.9 0.00 0.02 0.02 94 1013.4
20260509221519 72 339 1.7 1.7 0.05 0.02 0.02 93 1013.4
20260509221015 72 340 0.9 0.9 0.05 0.02 0.02 92 1013.5
20260509220511 72 33 1.7 1.7 0.07 0.01 0.01 91 1013.4
20260509220008 73 350 0.9 1.7 0.07 0.01 0.01 89 1013.3
20260509215503 74 7 0.9 0.9 0.00 0.00 0.00 87 1013.2
20260509215001 75 60 0.0 0.9 0.00 0.00 0.00 84 1013.2
20260509214458 75 326 1.7 1.7 0.00 0.00 0.00 82 1013.0
20260509213954 75 333 2.6 2.6 0.00 0.00 0.00 82 1013.1
20260509213450 75 336 1.7 2.6 0.00 0.00 0.00 82 1013.0
20260509212948 76 25 0.9 0.9 0.00 0.00 0.00 81 1012.9
20260509212445 76 355 0.9 0.9 0.00 0.00 0.00 81 1012.7
20260509211942 76 11 0.9 0.9 0.00 0.00 0.00 81 1012.7
20260509211437 76 75 0.0 0.9 0.00 0.00 0.00 81 1012.3
20260509210934 78 14 2.6 3.5 0.00 0.00 0.00 79 1012.4
20260509210431 81 141 2.6 3.5 0.00 0.00 0.00 76 1012.1
20260509205927 82 62 0.9 0.9 0.00 0.00 0.00 75 1012.1
20260509205427 83 301 0.9 0.9 0.00 0.00 0.00 74 1011.8
20260509204923 83 32 0.9 0.9 0.00 0.00 0.00 73 1011.7
20260509204419 83 12 0.0 0.0 0.00 0.00 0.00 74 1011.7
20260509203916 83 104 0.0 0.9 0.00 0.00 0.00 74 1011.7
20260509203412 83 198 0.9 0.9 0.00 0.00 0.00 74 1011.7
20260509202910 83 263 0.9 0.9 0.00 0.00 0.00 73 1011.6
20260509202405 83 359 1.7 2.6 0.00 0.00 0.00 75 1011.8
20260509201900 83 328 0.9 2.6 0.00 0.00 0.00 74 1011.9
20260509201356 83 274 0.9 0.9 0.00 0.00 0.00 74 1012.2
20260509200853 83 338 0.9 0.9 0.00 0.00 0.00 74 1011.9
20260509200348 84 262 1.7 1.7 0.00 0.00 0.00 73 1012.0
20260509195845 83 293 0.0 0.0 0.00 0.00 0.00 74 1012.0
20260509195345 82 43 0.9 0.9 0.00 0.00 0.00 77 1011.7
20260509194845 82 108 0.0 0.0 0.00 0.00 0.00 76 1012.1
20260509194341 82 328 0.9 0.9 0.00 0.00 0.00 76 1011.9
20260509193838 83 265 1.7 1.7 0.00 0.00 0.00 76 1011.9
20260509193338 82 105 0.0 0.9 0.00 0.00 0.00 77 1012.2
20260509192835 82 358 0.0 0.0 0.00 0.00 0.00 77 1012.2
20260509192330 82 358 0.0 0.0 0.00 0.00 0.00 76 1012.0
20260509191825 82 177 0.9 0.9 0.00 0.00 0.00 77 1012.0
20260509191322 83 269 1.7 1.7 0.00 0.00 0.00 77 1012.1
20260509190818 82 8 0.0 0.9 0.00 0.00 0.00 78 1012.3
20260509190315 83 240 3.5 6.1 0.00 0.00 0.00 76 1012.3
20260509185812 84 343 1.7 2.6 0.00 0.00 0.00 77 1012.3
20260509185308 83 217 0.0 0.0 0.00 0.00 0.00 77 1012.3
20260509184806 83 258 0.9 1.7 0.00 0.00 0.00 75 1012.6
20260509184303 83 282 0.9 1.7 0.00 0.00 0.00 75 1012.6
20260509183759 83 97 0.0 0.9 0.00 0.00 0.00 75 1012.5
20260509183255 83 62 0.9 1.7 0.00 0.00 0.00 75 1012.3
20260509182750 84 247 1.7 2.6 0.00 0.00 0.00 73 1012.6
20260509182248 85 250 2.6 3.5 0.00 0.00 0.00 73 1012.3
20260509181745 84 161 2.6 3.5 0.00 0.00 0.00 72 1012.4
20260509181242 85 315 0.9 1.7 0.00 0.00 0.00 71 1012.7
20260509180740 85 235 2.6 3.5 0.00 0.00 0.00 71 1012.6
20260509180236 86 52 1.7 1.7 0.00 0.00 0.00 70 1012.5
20260509175732 86 291 3.5 5.2 0.00 0.00 0.00 70 1012.4
20260509175229 86 229 1.7 1.7 0.00 0.00 0.00 69 1012.5
20260509174725 86 313 2.6 3.5 0.00 0.00 0.00 68 1012.8
20260509174220 88 144 3.5 3.5 0.00 0.00 0.00 68 1012.5
20260509173717 89 175 2.6 3.5 0.00 0.00 0.00 65 1012.9
20260509173212 87 34 0.9 1.7 0.00 0.00 0.00 66 1012.9
20260509172708 87 206 1.7 2.6 0.00 0.00 0.00 66 1012.8
20260509172205 88 214 0.9 1.7 0.00 0.00 0.00 64 1012.5
20260509171700 88 110 0.9 1.7 0.00 0.00 0.00 64 1012.9
20260509171157 88 6 0.9 1.7 0.00 0.00 0.00 63 1012.9
20260509170654 88 246 0.9 1.7 0.00 0.00 0.00 64 1013.0
20260509170150 88 216 3.5 3.5 0.00 0.00 0.00 63 1012.8
20260509165648 88 302 0.9 1.7 0.00 0.00 0.00 64 1013.1
20260509165144 88 319 3.5 6.1 0.00 0.00 0.00 63 1013.0
20260509164640 89 242 1.7 3.5 0.00 0.00 0.00 63 1013.1
20260509164136 88 355 0.9 1.7 0.00 0.00 0.00 63 1013.1
20260509163634 89 278 4.3 6.1 0.00 0.00 0.00 63 1013.1
20260509163129 89 272 1.7 1.7 0.00 0.00 0.00 63 1013.1
20260509162627 89 68 0.9 0.9 0.00 0.00 0.00 62 1013.1
20260509162123 88 284 2.6 3.5 0.00 0.00 0.00 64 1013.1
20260509161619 86 337 1.7 1.7 0.00 0.00 0.00 66 1013.1
20260509161114 87 218 4.3 5.2 0.00 0.00 0.00 66 1013.0
20260509160610 87 324 1.7 1.7 0.00 0.00 0.00 66 1013.1
20260509160105 86 184 1.7 1.7 0.00 0.00 0.00 69 1012.8
20260509155602 84 162 2.6 2.6 0.00 0.00 0.00 70 1012.9
20260509155058 86 256 0.0 0.9 0.00 0.00 0.00 69 1013.0
20260509154554 86 94 1.7 1.7 0.00 0.00 0.00 68 1013.0
20260509154052 85 249 2.6 2.6 0.00 0.00 0.00 70 1012.8
20260509153549 85 112 0.9 2.6 0.00 0.00 0.00 70 1012.7
20260509153046 85 88 2.6 2.6 0.00 0.00 0.00 70 1012.7
20260509152541 84 228 1.7 1.7 0.00 0.00 0.00 72 1012.6
20260509152039 84 243 0.9 1.7 0.00 0.00 0.00 72 1012.4
20260509151535 84 342 3.5 5.2 0.00 0.00 0.00 72 1012.6
20260509151033 84 58 0.0 0.0 0.00 0.00 0.00 73 1012.7
20260509150530 83 164 1.7 2.6 0.00 0.00 0.00 74 1012.7